CheckWX is a tool to help pilots better visualize weather data.  It is not intended as a substitute for an official pre-flight weather briefing.

04:36:03 UTC

KRNV METAR
Cleveland Municipal Airport
Cleveland, Mississippi, USA
Current

21 mins ago

KRNV 040415Z AUTO 00000KT 10SM SCT032 SCT043 25/25 A2993 RMK AO2 T02510247
Observed
Jul-4 @ 04:15 UTC
Visibility
10 SM
Flight Rules
VFR
Cloud Levels
  • Scattered at 3,200' AGL
  • Scattered at 4,300' AGL
Temperature
25°C / 77°F
Dewpoint
25°C / 77°F
Humidity
100%
Altimeter
29.93" Hg
Pressure
1013.52 hPa
Previous

41 mins ago

KRNV 040355Z AUTO 08004KT 10SM SCT032 SCT043 26/25 A2993 RMK AO2 T02550248
Observed
Jul-4 @ 03:55 UTC
Wind
  • 080° at 4 KTS
Visibility
10 SM
Flight Rules
VFR
Cloud Levels
  • Scattered at 3,200' AGL
  • Scattered at 4,300' AGL
Temperature
26°C / 79°F
Dewpoint
25°C / 77°F
Humidity
94%
Altimeter
29.93" Hg
Pressure
1013.52 hPa
Previous

1 hour ago

KRNV 040335Z AUTO 07004KT 10SM SCT034 26/25 A2994 RMK AO2 T02550245
Observed
Jul-4 @ 03:35 UTC
Wind
  • 070° at 4 KTS
Visibility
10 SM
Flight Rules
VFR
Cloud Levels
  • Scattered at 3,400' AGL
Temperature
26°C / 79°F
Dewpoint
24°C / 75°F
Humidity
89%
Altimeter
29.94" Hg
Pressure
1013.92 hPa